Time;durP1;ratioP1;P1;durP2;ratioP2;P2;SDS_P1;SDS_P2;PMS_P1;PMS_P2;Temp;Humidity;BMP_temperature;BMP_pressure;BME280_temperature;BME280_humidity;BME280_pressure;Samples;Min_cycle;Max_cycle;Signal;HPM_P1;HPM_P2
2021/08/07 00:01:45;;;;;;;1.10;1.00;;;20.00;99.90;;;;;;4986025;28;21342;-88
2021/08/07 00:04:13;;;;;;;2.90;0.90;;;20.00;99.90;;;;;;4988999;28;20469;-89
2021/08/07 00:06:42;;;;;;;1.50;1.13;;;20.00;99.90;;;;;;4977480;28;20452;-87
2021/08/07 00:09:11;;;;;;;1.40;1.03;;;19.90;99.90;;;;;;4974647;28;20450;-87
2021/08/07 00:11:39;;;;;;;4.43;1.20;;;19.90;99.90;;;;;;4970115;28;20480;-87
2021/08/07 00:14:08;;;;;;;1.00;1.00;;;19.90;99.90;;;;;;4987073;28;20497;-87
2021/08/07 00:16:36;;;;;;;3.17;1.20;;;19.90;99.90;;;;;;4989923;28;20957;-86
2021/08/07 00:19:05;;;;;;;2.93;1.70;;;19.90;99.90;;;;;;4975656;28;20458;-87
2021/08/07 00:21:33;;;;;;;3.70;1.10;;;19.90;99.90;;;;;;4981838;28;20474;-86
2021/08/07 00:24:01;;;;;;;2.57;1.60;;;19.90;99.90;;;;;;4985035;28;20453;-88
2021/08/07 00:26:31;;;;;;;2.33;1.30;;;19.80;99.90;;;;;;4971111;28;20474;-87
2021/08/07 00:28:59;;;;;;;1.93;1.60;;;19.80;99.90;;;;;;4977691;28;20474;-87
2021/08/07 00:31:28;;;;;;;3.83;1.20;;;19.80;99.90;;;;;;4983580;28;20486;-87
2021/08/07 00:33:56;;;;;;;1.40;1.07;;;19.80;99.90;;;;;;4972238;28;20466;-87
2021/08/07 00:36:24;;;;;;;1.43;1.10;;;19.70;1.00;;;;;;4991621;28;20533;-87
2021/08/07 00:38:53;;;;;;;2.10;1.23;;;19.70;1.00;;;;;;4993253;28;20455;-87
2021/08/07 00:41:21;;;;;;;1.83;1.00;;;19.70;1.00;;;;;;4976413;28;20986;-87
2021/08/07 00:43:51;;;;;;;5.37;1.33;;;19.70;1.00;;;;;;4992747;28;20877;-87
2021/08/07 00:46:19;;;;;;;1.37;0.90;;;19.80;1.00;;;;;;4990919;28;20471;-87
2021/08/07 00:48:49;;;;;;;1.60;1.10;;;19.80;1.00;;;;;;4976317;28;20507;-87
2021/08/07 00:51:18;;;;;;;2.17;1.10;;;19.80;1.00;;;;;;4991414;28;20475;-86
2021/08/07 00:53:47;;;;;;;2.67;1.20;;;19.80;1.00;;;;;;4992659;28;20493;-89
2021/08/07 00:56:15;;;;;;;1.60;1.10;;;19.90;99.90;;;;;;5004363;28;21048;-88
2021/08/07 00:58:43;;;;;;;1.80;1.23;;;19.90;99.90;;;;;;4991535;28;20566;-87
2021/08/07 01:01:15;;;;;;;1.20;1.10;;;19.90;99.90;;;;;;4991521;28;20814;-88
2021/08/07 01:03:47;;;;;;;1.80;1.40;;;19.90;99.90;;;;;;4987848;28;20570;-87
2021/08/07 01:06:26;;;;;;;2.00;1.23;;;20.00;99.90;;;;;;4982989;28;21313;-89
2021/08/07 01:09:03;;;;;;;2.47;1.20;;;19.90;99.90;;;;;;4988937;28;20547;-87
2021/08/07 01:11:40;;;;;;;1.27;1.17;;;19.90;99.90;;;;;;4993955;28;20469;-87
2021/08/07 01:14:10;;;;;;;2.53;1.70;;;19.80;99.90;;;;;;4989182;28;20468;-87
2021/08/07 01:16:44;;;;;;;1.87;1.20;;;19.70;99.90;;;;;;4996251;28;20484;-87
2021/08/07 01:19:17;;;;;;;1.10;1.00;;;19.80;99.90;;;;;;4982213;28;20549;-86
2021/08/07 01:21:51;;;;;;;2.37;1.10;;;19.80;99.90;;;;;;4981548;28;20537;-89
2021/08/07 01:24:27;;;;;;;1.13;1.03;;;19.80;99.90;;;;;;4991272;28;20460;-88
2021/08/07 01:27:12;;;;;;;4.03;1.20;;;19.80;99.90;;;;;;4992436;28;20570;-88
2021/08/07 01:29:41;;;;;;;1.10;1.00;;;19.90;99.90;;;;;;4982960;28;20881;-87
2021/08/07 01:32:09;;;;;;;0.83;0.83;;;19.90;99.90;;;;;;4991605;28;20558;-88
2021/08/07 01:34:39;;;;;;;2.80;1.10;;;19.90;99.90;;;;;;4975439;28;20451;-87
2021/08/07 01:37:08;;;;;;;2.40;1.10;;;19.90;99.90;;;;;;4992420;28;20494;-87
2021/08/07 01:39:36;;;;;;;1.77;1.00;;;19.90;99.90;;;;;;4992298;28;20455;-88
2021/08/07 01:42:06;;;;;;;1.07;1.00;;;19.90;99.90;;;;;;4992333;28;20848;-87
2021/08/07 01:44:34;;;;;;;1.70;0.93;;;19.90;99.90;;;;;;4991451;28;20451;-87
2021/08/07 01:47:07;;;;;;;1.20;1.10;;;19.90;99.90;;;;;;4988855;28;21009;-87
2021/08/07 01:49:43;;;;;;;1.37;1.27;;;20.00;99.90;;;;;;4974981;28;20454;-87
2021/08/07 01:52:18;;;;;;;2.20;1.00;;;19.90;99.90;;;;;;4989033;28;20883;-87
2021/08/07 01:54:54;;;;;;;1.40;1.17;;;19.80;99.90;;;;;;4988913;28;20892;-87
2021/08/07 01:57:28;;;;;;;0.90;0.90;;;19.70;1.00;;;;;;4991137;28;20445;-87
2021/08/07 01:59:57;;;;;;;1.63;1.13;;;19.70;1.00;;;;;;4990994;28;20552;-88
2021/08/07 02:02:27;;;;;;;2.20;1.20;;;19.70;99.90;;;;;;4978946;28;21017;-87
2021/08/07 02:04:57;;;;;;;2.13;1.20;;;19.70;1.00;;;;;;4972286;28;20455;-88
2021/08/07 02:07:27;;;;;;;1.57;0.80;;;19.70;1.00;;;;;;4982482;28;20514;-87
2021/08/07 02:09:57;;;;;;;1.30;0.90;;;19.70;1.00;;;;;;4991912;28;20549;-87
2021/08/07 02:12:27;;;;;;;1.47;1.23;;;19.70;1.00;;;;;;4979830;28;20842;-88
2021/08/07 02:14:56;;;;;;;1.70;1.10;;;19.70;1.00;;;;;;4980009;28;20557;-89
2021/08/07 02:17:25;;;;;;;2.50;1.10;;;19.70;1.00;;;;;;4981270;28;20513;-87
2021/08/07 02:19:54;;;;;;;2.30;1.00;;;19.70;1.00;;;;;;4953517;29;20463;-87
2021/08/07 02:22:23;;;;;;;4.50;1.30;;;19.60;1.00;;;;;;4968540;28;20513;-87
2021/08/07 02:24:51;;;;;;;2.07;1.00;;;19.70;1.00;;;;;;4970972;28;20628;-87
2021/08/07 02:27:19;;;;;;;0.90;0.90;;;19.60;1.00;;;;;;4981788;28;20482;-88
2021/08/07 02:29:49;;;;;;;1.67;1.20;;;19.60;1.00;;;;;;4979737;28;20561;-87
2021/08/07 02:32:18;;;;;;;1.20;1.10;;;19.60;1.00;;;;;;4985699;28;20672;-88
2021/08/07 02:34:47;;;;;;;2.40;1.00;;;19.60;1.00;;;;;;4988448;28;20547;-87
2021/08/07 02:37:17;;;;;;;1.20;1.10;;;19.50;1.00;;;;;;4983730;28;20457;-87
2021/08/07 02:39:46;;;;;;;3.30;1.00;;;19.50;1.00;;;;;;4981070;28;20546;-87
2021/08/07 02:42:15;;;;;;;1.40;1.30;;;19.50;1.00;;;;;;4988485;28;20479;-87
2021/08/07 02:44:43;;;;;;;1.60;1.03;;;19.40;1.00;;;;;;4971932;28;20833;-87
2021/08/07 02:47:14;;;;;;;1.40;1.10;;;19.50;1.00;;;;;;4972399;28;21005;-87
2021/08/07 02:49:43;;;;;;;1.73;1.20;;;19.50;1.00;;;;;;4987845;28;21030;-88
2021/08/07 02:52:11;;;;;;;1.10;1.00;;;19.50;1.00;;;;;;4988577;28;20561;-87
2021/08/07 02:54:40;;;;;;;1.17;1.07;;;19.50;1.00;;;;;;4984807;28;20812;-87
2021/08/07 02:57:08;;;;;;;1.00;1.00;;;19.50;1.00;;;;;;4975685;28;20462;-87
2021/08/07 02:59:37;;;;;;;1.77;1.13;;;19.50;1.00;;;;;;4971278;28;20458;-88
2021/08/07 03:02:06;;;;;;;1.23;0.97;;;19.40;1.00;;;;;;4983201;28;20479;-90
2021/08/07 03:04:36;;;;;;;1.33;1.07;;;19.40;1.00;;;;;;4968223;28;20452;-88
2021/08/07 03:07:04;;;;;;;1.43;1.33;;;19.40;1.00;;;;;;4972280;28;20518;-87
2021/08/07 03:09:32;;;;;;;1.30;1.20;;;19.40;1.00;;;;;;4990415;28;20557;-87
2021/08/07 03:12:01;;;;;;;2.83;1.33;;;19.50;1.00;;;;;;4972516;28;20563;-90
2021/08/07 03:14:29;;;;;;;0.80;0.80;;;19.40;1.00;;;;;;4986970;28;20475;-88
2021/08/07 03:16:57;;;;;;;1.37;1.27;;;19.40;1.00;;;;;;4986301;28;20535;-87
2021/08/07 03:19:26;;;;;;;1.40;1.30;;;19.40;1.00;;;;;;4987226;28;20959;-87
2021/08/07 03:21:55;;;;;;;1.30;1.20;;;19.40;1.00;;;;;;4973630;28;20509;-87
2021/08/07 03:24:24;;;;;;;1.87;1.10;;;19.30;1.00;;;;;;4991049;28;20454;-86
2021/08/07 03:26:52;;;;;;;1.20;1.10;;;19.30;1.00;;;;;;4981913;28;21008;-86
2021/08/07 03:29:21;;;;;;;2.07;1.10;;;19.20;1.00;;;;;;4986983;28;20448;-87
2021/08/07 03:31:49;;;;;;;1.03;1.00;;;19.20;1.00;;;;;;4985796;28;20510;-87
2021/08/07 03:34:17;;;;;;;1.07;0.97;;;19.20;1.00;;;;;;4970858;28;20961;-88
2021/08/07 03:36:46;;;;;;;1.03;0.97;;;19.20;1.00;;;;;;4971264;28;20814;-88
2021/08/07 03:39:15;;;;;;;1.30;1.20;;;19.20;1.00;;;;;;4986366;28;20868;-87
2021/08/07 03:41:44;;;;;;;1.50;1.40;;;19.20;1.00;;;;;;4986320;28;20479;-88
2021/08/07 03:44:12;;;;;;;1.10;1.00;;;19.20;1.00;;;;;;4986107;28;20831;-88
2021/08/07 03:46:40;;;;;;;2.00;1.10;;;19.10;1.00;;;;;;4986329;28;20587;-88
2021/08/07 03:49:08;;;;;;;1.37;1.13;;;19.10;1.00;;;;;;4970157;28;20490;-87
2021/08/07 03:51:37;;;;;;;1.90;1.70;;;19.10;1.00;;;;;;4986780;28;20558;-87
2021/08/07 03:54:05;;;;;;;2.97;1.30;;;19.10;1.00;;;;;;4972200;28;20508;-87
2021/08/07 03:56:35;;;;;;;1.83;1.10;;;19.10;1.00;;;;;;4978511;28;20827;-87
2021/08/07 03:59:03;;;;;;;1.37;1.10;;;19.00;1.00;;;;;;4986725;28;20547;-87
2021/08/07 04:01:31;;;;;;;3.00;1.20;;;19.00;1.00;;;;;;4989527;28;21092;-87
2021/08/07 04:04:00;;;;;;;1.33;0.90;;;19.00;1.00;;;;;;4987646;28;20959;-86
2021/08/07 04:06:28;;;;;;;1.70;1.20;;;19.10;1.00;;;;;;4988601;28;21004;-87
2021/08/07 04:08:57;;;;;;;2.00;1.10;;;19.10;1.00;;;;;;4969156;28;20471;-87
2021/08/07 04:11:25;;;;;;;2.23;1.20;;;19.00;1.00;;;;;;4970861;28;20495;-87
2021/08/07 04:13:55;;;;;;;1.63;1.00;;;19.00;1.00;;;;;;4983912;28;20455;-87
2021/08/07 04:16:23;;;;;;;1.87;1.37;;;19.00;1.00;;;;;;4974802;28;20470;-87
2021/08/07 04:18:51;;;;;;;2.90;1.30;;;19.00;1.00;;;;;;4988424;28;20455;-87
2021/08/07 04:21:19;;;;;;;1.90;1.20;;;19.00;1.00;;;;;;4985099;28;20490;-88
2021/08/07 04:23:47;;;;;;;1.20;0.90;;;19.00;1.00;;;;;;4986052;28;20459;-87
2021/08/07 04:26:16;;;;;;;2.60;1.10;;;19.00;1.00;;;;;;4972375;28;21009;-87
2021/08/07 04:28:44;;;;;;;1.40;1.20;;;19.00;1.00;;;;;;4985876;28;20473;-87
2021/08/07 04:31:14;;;;;;;0.90;0.90;;;18.90;1.00;;;;;;4981476;28;20907;-87
2021/08/07 04:33:42;;;;;;;0.90;0.80;;;18.90;1.00;;;;;;4987801;28;20459;-87
2021/08/07 04:36:11;;;;;;;1.00;0.90;;;19.00;1.00;;;;;;4989709;28;20464;-87
2021/08/07 04:38:39;;;;;;;1.20;1.10;;;19.00;1.00;;;;;;4985439;28;20524;-87
2021/08/07 04:41:07;;;;;;;1.53;1.13;;;19.10;1.00;;;;;;4989097;28;20512;-87
2021/08/07 04:43:36;;;;;;;2.20;1.00;;;19.10;1.00;;;;;;4982654;28;20460;-88
2021/08/07 04:46:04;;;;;;;1.20;1.10;;;19.10;1.00;;;;;;4979900;28;20493;-87
2021/08/07 04:48:34;;;;;;;1.27;0.90;;;18.90;1.00;;;;;;4968603;28;20533;-87
2021/08/07 04:51:02;;;;;;;1.37;1.10;;;19.00;1.00;;;;;;4975374;28;20534;-88
2021/08/07 04:53:30;;;;;;;1.47;1.20;;;19.00;1.00;;;;;;4988488;28;20568;-87
2021/08/07 04:55:58;;;;;;;1.70;1.10;;;19.10;1.00;;;;;;4975993;28;20558;-87
2021/08/07 04:58:30;;;;;;;1.40;1.07;;;19.00;1.00;;;;;;4986231;28;20466;-88
2021/08/07 05:00:59;;;;;;;1.20;0.90;;;19.00;1.00;;;;;;4986318;28;20544;-87
2021/08/07 05:03:27;;;;;;;1.60;1.03;;;18.90;1.00;;;;;;4961716;28;20551;-87
2021/08/07 05:05:57;;;;;;;1.13;1.03;;;19.00;1.00;;;;;;4964531;28;20875;-87
2021/08/07 05:08:25;;;;;;;1.83;1.40;;;18.80;1.00;;;;;;4985165;28;20488;-88
2021/08/07 05:10:54;;;;;;;1.47;1.10;;;18.90;1.00;;;;;;4986022;28;20566;-87
2021/08/07 05:13:22;;;;;;;2.40;1.07;;;19.00;1.00;;;;;;4985182;28;21023;-87
2021/08/07 05:15:50;;;;;;;1.23;1.13;;;19.10;1.00;;;;;;4983640;28;20474;-86
2021/08/07 05:18:18;;;;;;;3.30;1.30;;;19.10;1.00;;;;;;4972125;28;20451;-87
2021/08/07 05:20:47;;;;;;;1.97;1.30;;;19.20;1.00;;;;;;4987295;28;20570;-87
2021/08/07 05:23:16;;;;;;;1.10;1.00;;;19.20;1.00;;;;;;4987290;28;20537;-87
2021/08/07 05:25:45;;;;;;;1.13;1.03;;;19.20;1.00;;;;;;4986625;28;20537;-87
2021/08/07 05:28:13;;;;;;;2.20;0.90;;;19.20;1.00;;;;;;4988374;28;20838;-87
2021/08/07 05:30:42;;;;;;;1.27;1.10;;;19.20;1.00;;;;;;4978269;28;21064;-87
2021/08/07 05:33:10;;;;;;;1.70;1.30;;;19.20;1.00;;;;;;4992148;28;20557;-88
2021/08/07 05:35:38;;;;;;;1.20;1.10;;;19.10;1.00;;;;;;4985572;28;20985;-86
2021/08/07 05:38:07;;;;;;;1.43;0.83;;;19.20;1.00;;;;;;4970836;28;20450;-84
2021/08/07 05:40:36;;;;;;;1.10;1.00;;;19.20;1.00;;;;;;4983963;28;20481;-84
2021/08/07 05:43:04;;;;;;;3.77;1.23;;;19.30;1.00;;;;;;4973237;28;20451;-84
2021/08/07 05:45:32;;;;;;;2.00;1.13;;;19.30;1.00;;;;;;4986846;28;20435;-84
2021/08/07 05:48:00;;;;;;;3.43;1.00;;;19.30;1.00;;;;;;4979006;28;20515;-84
2021/08/07 05:50:29;;;;;;;1.80;1.00;;;19.30;1.00;;;;;;4981854;28;20800;-84
2021/08/07 05:52:57;;;;;;;1.73;0.90;;;19.30;1.00;;;;;;4974131;28;20451;-84
2021/08/07 05:55:25;;;;;;;1.33;1.10;;;19.30;1.00;;;;;;4984756;28;20439;-84
2021/08/07 05:57:54;;;;;;;1.93;1.10;;;19.30;1.00;;;;;;4973366;28;20447;-84
2021/08/07 06:00:23;;;;;;;0.93;0.90;;;19.40;1.00;;;;;;4987653;28;20534;-84
2021/08/07 06:02:51;;;;;;;1.13;1.03;;;19.40;1.00;;;;;;4987920;28;20478;-84
2021/08/07 06:05:19;;;;;;;1.00;0.90;;;19.40;1.00;;;;;;4988139;28;20461;-84
2021/08/07 06:07:50;;;;;;;4.60;1.40;;;19.40;1.00;;;;;;4973385;28;20454;-85
2021/08/07 06:10:20;;;;;;;1.47;0.80;;;19.50;1.00;;;;;;4987670;28;20478;-84
2021/08/07 06:12:48;;;;;;;2.03;1.00;;;19.60;1.00;;;;;;4974779;28;20875;-84
2021/08/07 06:15:17;;;;;;;0.83;0.83;;;19.60;1.00;;;;;;4986841;28;20467;-84
2021/08/07 06:17:46;;;;;;;2.30;1.60;;;19.60;1.00;;;;;;4973972;28;20959;-83
2021/08/07 06:20:15;;;;;;;1.77;1.00;;;19.70;1.00;;;;;;4973022;28;20456;-83
2021/08/07 06:22:44;;;;;;;1.43;1.03;;;19.80;1.00;;;;;;4975933;28;20861;-82
2021/08/07 06:25:12;;;;;;;2.80;1.60;;;19.80;1.00;;;;;;4991921;28;20517;-82
2021/08/07 06:27:41;;;;;;;1.10;0.97;;;19.80;1.00;;;;;;4977149;28;20559;-82
2021/08/07 06:30:10;;;;;;;1.10;1.00;;;19.80;1.00;;;;;;4965894;28;20453;-82
2021/08/07 06:32:40;;;;;;;5.70;1.20;;;19.90;1.00;;;;;;4983654;28;20507;-82
2021/08/07 06:35:09;;;;;;;2.20;0.87;;;19.90;1.00;;;;;;4986513;28;20475;-82
2021/08/07 06:37:37;;;;;;;2.67;1.30;;;20.00;1.00;;;;;;4977164;28;20454;-82
2021/08/07 06:40:07;;;;;;;4.20;0.90;;;20.10;1.00;;;;;;4972884;28;20478;-82
2021/08/07 06:42:36;;;;;;;0.93;0.93;;;20.20;1.00;;;;;;4990201;28;20479;-82
2021/08/07 06:45:05;;;;;;;3.80;1.57;;;20.20;1.00;;;;;;4983726;28;20502;-83
2021/08/07 06:47:34;;;;;;;0.97;0.87;;;20.30;1.00;;;;;;4976922;28;20504;-82
2021/08/07 06:50:04;;;;;;;0.97;0.80;;;20.30;1.00;;;;;;4974224;28;20472;-82
2021/08/07 06:52:33;;;;;;;3.73;1.20;;;20.40;99.90;;;;;;4975878;28;20475;-83
2021/08/07 06:55:01;;;;;;;1.00;0.90;;;20.40;1.00;;;;;;4978442;28;20917;-83
2021/08/07 06:57:29;;;;;;;2.10;1.20;;;20.50;99.90;;;;;;4984288;28;20486;-82
2021/08/07 07:00:02;;;;;;;2.73;0.90;;;20.60;99.90;;;;;;4970517;28;20459;-83
2021/08/07 07:02:31;;;;;;;1.40;0.90;;;20.80;1.00;;;;;;4971931;28;20480;-84
2021/08/07 07:04:59;;;;;;;1.90;0.90;;;21.00;99.90;;;;;;4981312;28;20455;-83
2021/08/07 07:07:29;;;;;;;1.93;1.10;;;21.10;99.90;;;;;;4988852;28;20541;-84
2021/08/07 07:09:57;;;;;;;0.87;0.87;;;21.20;99.90;;;;;;4985797;28;20470;-84
2021/08/07 07:12:25;;;;;;;1.80;0.90;;;21.30;99.90;;;;;;4979845;28;20874;-83
2021/08/07 07:14:55;;;;;;;1.23;0.80;;;21.40;99.90;;;;;;4987304;28;20530;-83
2021/08/07 07:17:25;;;;;;;3.20;0.90;;;21.50;99.90;;;;;;4986424;28;20451;-80
2021/08/07 07:19:53;;;;;;;2.30;0.93;;;21.50;99.90;;;;;;4985223;28;20971;-83
2021/08/07 07:22:21;;;;;;;1.97;1.00;;;21.40;99.90;;;;;;4976986;28;20489;-82
2021/08/07 07:24:51;;;;;;;1.70;1.10;;;21.30;99.90;;;;;;4985339;28;20458;-82
2021/08/07 07:27:19;;;;;;;3.13;0.90;;;21.30;99.90;;;;;;4985625;28;20473;-83
2021/08/07 07:29:47;;;;;;;1.53;0.90;;;21.30;99.90;;;;;;4985187;28;20483;-82
2021/08/07 07:32:15;;;;;;;2.80;1.70;;;21.30;99.90;;;;;;4970430;28;20486;-83
2021/08/07 07:34:44;;;;;;;2.33;0.90;;;21.30;99.90;;;;;;4988047;28;20953;-83
2021/08/07 07:37:12;;;;;;;1.27;1.10;;;21.40;99.90;;;;;;4969548;28;20450;-84
2021/08/07 07:39:40;;;;;;;1.37;1.00;;;21.30;99.90;;;;;;4968977;28;20439;-84
2021/08/07 07:42:10;;;;;;;1.13;1.00;;;21.30;99.90;;;;;;4973870;28;20578;-83
2021/08/07 07:44:39;;;;;;;1.77;1.30;;;21.30;99.90;;;;;;4972997;28;20550;-83
2021/08/07 07:47:07;;;;;;;0.73;0.73;;;21.40;99.90;;;;;;4985683;28;21081;-84
2021/08/07 07:49:35;;;;;;;1.10;1.00;;;21.30;99.90;;;;;;4964837;28;20489;-82
2021/08/07 07:52:04;;;;;;;1.00;0.90;;;21.30;99.90;;;;;;4974712;28;20513;-83
2021/08/07 07:54:32;;;;;;;4.40;1.17;;;21.40;99.90;;;;;;4971191;28;20538;-83
2021/08/07 07:57:02;;;;;;;1.73;0.80;;;21.40;99.90;;;;;;4970144;28;20449;-82
2021/08/07 07:59:32;;;;;;;0.80;0.80;;;21.50;99.90;;;;;;4983390;28;20463;-83
2021/08/07 08:02:04;;;;;;;1.00;0.90;;;21.50;99.90;;;;;;4985120;28;20507;-83
2021/08/07 08:04:33;;;;;;;1.20;0.80;;;21.50;99.90;;;;;;4970408;28;20540;-83
2021/08/07 08:07:01;;;;;;;1.20;0.80;;;21.50;99.90;;;;;;4970091;28;20464;-83
2021/08/07 08:09:30;;;;;;;1.33;0.97;;;21.50;99.90;;;;;;4985043;28;20582;-83
2021/08/07 08:11:58;;;;;;;2.50;0.80;;;21.60;99.90;;;;;;4984986;28;20535;-83
2021/08/07 08:14:27;;;;;;;4.03;1.00;;;21.60;99.90;;;;;;4983812;28;20512;-84
2021/08/07 08:16:56;;;;;;;0.87;0.80;;;21.60;99.90;;;;;;4971991;28;20451;-83
2021/08/07 08:19:24;;;;;;;1.80;0.80;;;21.50;99.90;;;;;;4974127;28;20463;-80
2021/08/07 08:21:53;;;;;;;2.20;0.80;;;21.60;99.90;;;;;;4985511;28;20509;-82
2021/08/07 08:24:25;;;;;;;1.27;0.90;;;21.60;99.90;;;;;;4975604;28;21167;-80
2021/08/07 08:26:54;;;;;;;1.73;0.90;;;21.70;99.90;;;;;;4968693;28;20462;-84
2021/08/07 08:29:22;;;;;;;1.00;0.93;;;21.70;99.90;;;;;;4968062;28;21115;-85
2021/08/07 08:31:50;;;;;;;1.23;0.80;;;21.70;99.90;;;;;;4984425;28;20477;-85
2021/08/07 08:34:20;;;;;;;1.27;0.97;;;21.70;99.90;;;;;;4970768;28;20443;-85
2021/08/07 08:36:48;;;;;;;2.10;0.80;;;21.70;99.90;;;;;;4969334;28;20875;-85
2021/08/07 08:39:16;;;;;;;1.53;0.80;;;21.70;99.90;;;;;;4970570;28;20884;-85
2021/08/07 08:41:45;;;;;;;1.60;0.90;;;21.60;99.90;;;;;;4984284;28;20562;-84
2021/08/07 08:44:14;;;;;;;1.70;1.00;;;21.60;99.90;;;;;;4986482;28;20945;-85
2021/08/07 08:46:44;;;;;;;1.57;0.90;;;21.60;99.90;;;;;;4989058;28;20782;-85
2021/08/07 08:49:15;;;;;;;0.90;0.90;;;21.70;99.90;;;;;;4988381;28;20454;-85
2021/08/07 08:51:47;;;;;;;1.07;0.80;;;21.70;99.90;;;;;;4989116;28;20810;-85
2021/08/07 08:54:18;;;;;;;1.97;0.87;;;21.80;99.90;;;;;;4974828;28;20464;-85
2021/08/07 08:56:47;;;;;;;1.00;0.90;;;21.70;99.90;;;;;;4987626;28;20472;-85
2021/08/07 08:59:19;;;;;;;1.10;0.80;;;21.70;99.90;;;;;;4972245;28;20464;-86
2021/08/07 09:01:47;;;;;;;1.23;0.97;;;21.70;99.90;;;;;;4969844;28;20925;-85
2021/08/07 09:04:17;;;;;;;0.80;0.80;;;21.60;99.90;;;;;;4975153;28;20475;-85
2021/08/07 09:06:47;;;;;;;2.60;1.10;;;21.60;99.90;;;;;;4988465;28;20497;-84
2021/08/07 09:09:15;;;;;;;2.00;1.10;;;21.60;99.90;;;;;;4983296;28;20466;-85
2021/08/07 09:11:49;;;;;;;1.90;1.00;;;21.60;99.90;;;;;;4974468;28;20483;-85
2021/08/07 09:14:28;;;;;;;2.40;0.90;;;21.60;99.90;;;;;;4974096;28;20904;-85
2021/08/07 09:17:14;;;;;;;1.10;1.00;;;21.60;99.90;;;;;;4974307;28;20468;-85
2021/08/07 09:19:54;;;;;;;1.33;0.80;;;21.60;99.90;;;;;;4977031;28;20451;-84
2021/08/07 09:22:25;;;;;;;1.23;0.80;;;21.40;99.90;;;;;;4969605;28;21079;-85
2021/08/07 09:25:08;;;;;;;6.50;1.80;;;21.40;99.90;;;;;;4974705;28;20548;-85
2021/08/07 09:27:39;;;;;;;2.00;0.93;;;21.50;99.90;;;;;;4982841;28;21001;-79
2021/08/07 09:30:26;;;;;;;2.17;0.90;;;21.40;99.90;;;;;;4986895;28;20861;-79
2021/08/07 09:32:56;;;;;;;1.20;0.80;;;21.50;99.90;;;;;;4991568;28;20852;-79
2021/08/07 09:35:26;;;;;;;1.90;0.90;;;21.60;99.90;;;;;;4990119;28;20812;-78
2021/08/07 09:38:11;;;;;;;2.50;0.90;;;21.60;99.90;;;;;;4993487;28;20439;-78
2021/08/07 09:40:49;;;;;;;2.03;0.97;;;21.70;99.90;;;;;;4988077;28;20453;-78
2021/08/07 09:43:20;;;;;;;3.57;1.10;;;21.70;99.90;;;;;;4993450;28;20450;-79
2021/08/07 09:46:00;;;;;;;1.47;0.70;;;21.70;99.90;;;;;;4981120;28;20518;-79
2021/08/07 09:48:34;;;;;;;0.90;0.90;;;21.70;99.90;;;;;;4989362;28;20465;-78
2021/08/07 09:51:15;;;;;;;2.60;1.10;;;21.60;99.90;;;;;;4980439;28;20518;-79
2021/08/07 09:53:45;;;;;;;2.33;0.90;;;21.40;99.90;;;;;;4990763;28;20462;-79
2021/08/07 09:56:14;;;;;;;2.00;0.80;;;21.50;99.90;;;;;;4990058;28;20457;-80
2021/08/07 09:58:42;;;;;;;1.83;0.80;;;21.40;99.90;;;;;;4991597;28;20830;-79
2021/08/07 10:01:28;;;;;;;0.80;0.80;;;21.40;99.90;;;;;;4984778;28;20867;-79
2021/08/07 10:04:04;;;;;;;2.07;0.90;;;21.40;99.90;;;;;;4977936;28;20537;-80
2021/08/07 10:06:33;;;;;;;1.30;1.00;;;21.40;99.90;;;;;;4978850;28;20481;-79
2021/08/07 10:09:03;;;;;;;2.27;1.10;;;21.40;99.90;;;;;;4988014;28;20465;-80
2021/08/07 10:11:31;;;;;;;1.87;0.93;;;21.40;99.90;;;;;;4995011;28;20493;-79
2021/08/07 10:14:00;;;;;;;1.83;1.20;;;21.30;99.90;;;;;;4988241;28;20497;-81
2021/08/07 10:16:29;;;;;;;1.40;0.90;;;21.40;1.00;;;;;;4989337;28;20458;-78
2021/08/07 10:18:58;;;;;;;1.03;0.90;;;21.30;1.00;;;;;;4975913;28;20459;-79
2021/08/07 10:21:27;;;;;;;2.07;1.10;;;21.20;1.00;;;;;;4991176;28;21077;-79
2021/08/07 10:23:56;;;;;;;1.93;1.50;;;21.10;1.00;;;;;;4977639;28;20830;-77
2021/08/07 10:26:28;;;;;;;2.47;1.47;;;21.10;1.00;;;;;;4988043;28;20454;-81
2021/08/07 10:29:00;;;;;;;2.30;1.00;;;21.10;99.90;;;;;;4987063;28;20459;-81
2021/08/07 10:31:29;;;;;;;1.40;1.30;;;21.00;99.90;;;;;;4987851;28;20485;-79
2021/08/07 10:34:00;;;;;;;1.30;1.20;;;20.90;99.90;;;;;;4993218;28;20461;-78
2021/08/07 10:36:29;;;;;;;1.10;1.00;;;20.90;99.90;;;;;;4980258;28;20535;-79
2021/08/07 10:39:01;;;;;;;2.73;1.87;;;20.90;1.00;;;;;;4982148;28;20489;-78
2021/08/07 10:41:32;;;;;;;1.27;1.17;;;20.80;99.90;;;;;;4976228;28;20478;-78
2021/08/07 10:44:04;;;;;;;2.07;1.20;;;20.80;99.90;;;;;;4988834;28;20675;-77
2021/08/07 10:46:34;;;;;;;1.20;1.10;;;20.90;99.90;;;;;;4989245;28;20455;-83
2021/08/07 10:49:02;;;;;;;1.70;1.40;;;20.70;1.00;;;;;;4979090;28;20550;-82
2021/08/07 10:51:39;;;;;;;3.53;1.30;;;20.60;99.90;;;;;;4973715;28;20505;-81
2021/08/07 10:54:23;;;;;;;2.00;1.50;;;20.50;1.00;;;;;;4975838;28;20466;-82
2021/08/07 10:56:54;;;;;;;2.43;1.23;;;20.50;1.00;;;;;;4986568;28;20462;-81
2021/08/07 10:59:25;;;;;;;1.40;1.20;;;20.60;99.90;;;;;;4977807;28;20514;-82
2021/08/07 11:01:54;;;;;;;2.53;1.40;;;20.70;99.90;;;;;;4979968;28;21065;-82
2021/08/07 11:04:28;;;;;;;2.83;1.40;;;20.60;99.90;;;;;;4980078;28;20472;-81
2021/08/07 11:07:05;;;;;;;2.83;1.73;;;20.50;1.00;;;;;;4983049;28;20914;-82
2021/08/07 11:09:35;;;;;;;1.93;1.43;;;20.40;26.60;;;;;;4981653;28;20458;-83
2021/08/07 11:12:29;;;;;;;2.40;1.13;;;20.30;99.90;;;;;;4974716;28;20486;-82
2021/08/07 11:15:01;;;;;;;2.10;1.80;;;20.30;99.90;;;;;;4991584;28;20505;-83
2021/08/07 11:17:50;;;;;;;1.57;1.37;;;20.40;99.90;;;;;;4985707;28;20609;-82
2021/08/07 11:20:45;;;;;;;5.17;1.60;;;20.20;99.90;;;;;;4974664;28;20917;-83
2021/08/07 11:23:16;;;;;;;3.00;1.60;;;20.20;1.00;;;;;;4975477;28;20460;-82
2021/08/07 11:25:49;;;;;;;1.60;1.20;;;20.10;1.00;;;;;;4965322;28;20477;-82
2021/08/07 11:28:21;;;;;;;3.40;1.40;;;20.00;99.90;;;;;;4976207;28;20466;-82
2021/08/07 11:30:50;;;;;;;4.60;1.60;;;20.00;99.90;;;;;;4976452;28;20510;-82
2021/08/07 11:33:23;;;;;;;2.33;1.50;;;20.00;1.00;;;;;;4978134;28;20452;-82
2021/08/07 11:36:06;;;;;;;1.83;1.33;;;20.00;99.90;;;;;;4988642;28;20458;-82
2021/08/07 11:38:55;;;;;;;2.90;1.57;;;19.90;1.00;;;;;;4989029;28;20466;-82
2021/08/07 11:41:30;;;;;;;3.20;1.40;;;20.00;99.90;;;;;;4988506;28;20477;-82
2021/08/07 11:44:03;;;;;;;1.60;1.40;;;19.90;99.90;;;;;;4987118;28;20477;-82
2021/08/07 11:46:43;;;;;;;4.00;2.03;;;19.90;99.90;;;;;;4987939;28;20463;-84
2021/08/07 11:49:12;;;;;;;8.93;2.57;;;20.00;1.00;;;;;;4989634;28;20467;-83
2021/08/07 11:51:40;;;;;;;2.30;1.53;;;20.00;1.00;;;;;;4976190;28;20491;-83
2021/08/07 11:54:15;;;;;;;1.37;1.27;;;20.00;1.00;;;;;;4978388;28;20809;-83
2021/08/07 11:56:43;;;;;;;3.00;1.60;;;20.00;99.90;;;;;;4979793;28;20461;-83
2021/08/07 11:59:28;;;;;;;2.03;1.30;;;19.90;1.00;;;;;;4980197;28;20468;-83
2021/08/07 12:01:56;;;;;;;1.90;1.27;;;20.00;1.00;;;;;;4972295;28;21057;-82
2021/08/07 12:04:25;;;;;;;3.37;1.30;;;20.00;99.90;;;;;;4985841;28;21070;-82
2021/08/07 12:06:53;;;;;;;1.43;1.33;;;20.00;1.00;;;;;;4986555;28;20458;-81
2021/08/07 12:09:21;;;;;;;3.83;1.50;;;19.90;1.00;;;;;;4986738;28;20451;-82
2021/08/07 12:11:50;;;;;;;3.07;1.60;;;19.90;1.00;;;;;;4974497;28;20497;-82
2021/08/07 12:14:28;;;;;;;2.43;1.40;;;20.00;77.40;;;;;;4987459;28;20486;-81
2021/08/07 12:17:04;;;;;;;1.97;1.10;;;20.00;99.00;;;;;;4979369;28;21133;-82
2021/08/07 12:19:34;;;;;;;2.53;1.27;;;20.10;12.90;;;;;;4967870;28;20474;-83
2021/08/07 12:22:05;;;;;;;1.90;1.60;;;19.90;1.00;;;;;;4975902;28;21011;-85
2021/08/07 12:24:33;;;;;;;2.90;1.30;;;19.90;1.00;;;;;;4981330;28;20600;-81
2021/08/07 12:27:02;;;;;;;3.17;1.53;;;20.00;99.90;;;;;;4973070;28;20459;-84
2021/08/07 12:29:33;;;;;;;1.60;1.43;;;20.00;1.00;;;;;;4984316;28;21036;-84
2021/08/07 12:32:03;;;;;;;4.30;1.50;;;20.10;1.00;;;;;;4982950;28;20494;-83
2021/08/07 12:34:33;;;;;;;2.07;1.33;;;20.10;1.00;;;;;;4966421;28;21020;-84
2021/08/07 12:37:04;;;;;;;2.83;1.80;;;20.00;99.90;;;;;;4982794;28;20458;-84
2021/08/07 12:39:39;;;;;;;2.40;1.40;;;20.00;1.00;;;;;;4984201;28;20463;-84
2021/08/07 12:42:08;;;;;;;2.30;1.50;;;20.00;99.90;;;;;;4987100;28;20569;-85
2021/08/07 12:44:39;;;;;;;1.77;1.30;;;20.00;99.90;;;;;;4975962;28;20454;-86
2021/08/07 12:47:07;;;;;;;1.70;1.53;;;20.00;1.00;;;;;;4985985;28;20478;-82
2021/08/07 12:49:38;;;;;;;1.30;1.10;;;20.10;99.90;;;;;;4979222;28;20961;-81
2021/08/07 12:52:08;;;;;;;2.43;1.30;;;20.00;1.00;;;;;;4975290;28;20486;-84
2021/08/07 12:54:38;;;;;;;2.13;1.00;;;19.90;18.20;;;;;;4971772;28;20551;-83
2021/08/07 12:57:20;;;;;;;1.40;1.30;;;19.90;70.80;;;;;;4972231;28;20490;-83
2021/08/07 12:59:51;;;;;;;1.70;1.10;;;20.00;99.90;;;;;;4983499;28;20510;-83
2021/08/07 13:02:21;;;;;;;1.40;1.20;;;20.10;1.00;;;;;;4987128;28;20537;-83
2021/08/07 13:04:51;;;;;;;2.10;1.30;;;20.10;99.90;;;;;;4984812;28;20506;-83
2021/08/07 13:07:29;;;;;;;2.37;1.37;;;20.10;99.90;;;;;;4986492;28;20495;-82
2021/08/07 13:10:20;;;;;;;2.13;1.90;;;20.20;99.90;;;;;;4983669;28;20501;-83